createdAt,value
2023-02-23T00:01:56.349Z,13.77
2023-02-23T00:04:25.019Z,18.83
2023-02-23T00:06:53.936Z,14.43
2023-02-23T00:09:24.792Z,12.87
2023-02-23T00:11:57.357Z,18.10
2023-02-23T00:14:31.310Z,16.17
2023-02-23T00:17:00.099Z,15.37
2023-02-23T00:19:27.837Z,15.47
2023-02-23T00:21:59.120Z,15.17
2023-02-23T00:24:27.141Z,18.23
2023-02-23T00:26:54.561Z,13.00
2023-02-23T00:29:24.926Z,14.40
2023-02-23T00:31:56.288Z,16.07
2023-02-23T00:34:23.998Z,12.83
2023-02-23T00:36:56.763Z,14.10
2023-02-23T00:39:29.322Z,16.00
2023-02-23T00:42:02.600Z,13.97
2023-02-23T00:44:30.755Z,13.33
2023-02-23T00:46:58.188Z,16.10
2023-02-23T00:49:25.607Z,16.10
2023-02-23T00:51:53.409Z,17.63
2023-02-23T00:54:22.464Z,17.67
2023-02-23T00:56:50.787Z,15.40
2023-02-23T00:59:19.178Z,14.00
2023-02-23T01:01:46.840Z,14.73
2023-02-23T01:04:14.325Z,15.53
2023-02-23T01:06:42.681Z,14.17
2023-02-23T01:09:13.933Z,17.17
2023-02-23T01:11:46.984Z,13.70
2023-02-23T01:14:15.749Z,22.00
2023-02-23T01:16:43.228Z,16.53
2023-02-23T01:19:10.755Z,17.93
2023-02-23T01:21:42.198Z,16.43
2023-02-23T01:24:10.017Z,15.25
2023-02-23T01:26:39.897Z,16.10
2023-02-23T01:29:13.126Z,16.30
2023-02-23T01:31:44.946Z,22.00
2023-02-23T01:34:14.237Z,18.13
2023-02-23T01:36:43.845Z,21.90
2023-02-23T01:39:14.180Z,18.07
2023-02-23T01:41:44.991Z,22.60
2023-02-23T01:44:55.908Z,23.73
2023-02-23T01:47:23.296Z,19.07
2023-02-23T01:49:51.137Z,21.27
2023-02-23T01:52:19.740Z,24.60
2023-02-23T01:54:54.183Z,25.77
2023-02-23T01:57:25.309Z,17.83
2023-02-23T01:59:54.655Z,19.07
2023-02-23T02:02:33.476Z,20.00
2023-02-23T02:05:04.699Z,21.87
2023-02-23T02:07:35.346Z,18.77
2023-02-23T02:10:32.873Z,18.90
2023-02-23T02:13:00.334Z,20.23
2023-02-23T02:15:32.793Z,18.70
2023-02-23T02:18:53.437Z,20.43
2023-02-23T02:22:00.771Z,20.53
2023-02-23T02:24:52.631Z,14.63
2023-02-23T02:27:38.307Z,19.02
2023-02-23T02:30:44.334Z,16.93
2023-02-23T02:33:45.940Z,16.63
2023-02-23T02:36:53.240Z,15.87
2023-02-23T02:40:18.657Z,15.73
2023-02-23T02:43:18.650Z,14.90
2023-02-23T02:46:20.967Z,15.03
2023-02-23T02:48:57.921Z,16.63
2023-02-23T02:51:40.823Z,16.90
2023-02-23T02:54:25.603Z,14.70
2023-02-23T02:56:57.700Z,15.80
2023-02-23T02:59:46.442Z,13.90
2023-02-23T03:02:38.976Z,14.60
2023-02-23T03:05:32.374Z,15.27
2023-02-23T03:08:39.450Z,15.07
2023-02-23T03:11:28.797Z,11.77
2023-02-23T03:15:08.077Z,15.73
2023-02-23T03:18:06.879Z,16.47
2023-02-23T03:21:06.317Z,16.80
2023-02-23T03:24:24.900Z,12.80
2023-02-23T03:27:38.802Z,15.93
2023-02-23T03:30:48.980Z,12.47
2023-02-23T03:34:16.518Z,15.47
2023-02-23T03:37:11.153Z,12.60
2023-02-23T03:40:02.919Z,13.37
2023-02-23T03:45:42.437Z,14.90
2023-02-23T03:48:31.505Z,13.97
2023-02-23T03:51:22.554Z,12.97
2023-02-23T03:54:32.169Z,17.87
2023-02-23T03:57:22.223Z,17.87
2023-02-23T04:00:14.492Z,16.67
2023-02-23T04:03:03.823Z,17.77
2023-02-23T04:05:51.548Z,18.90
2023-02-23T04:08:39.074Z,14.03
2023-02-23T04:11:46.139Z,18.07
2023-02-23T04:14:23.766Z,17.30
2023-02-23T04:16:51.915Z,16.03
2023-02-23T04:19:19.233Z,14.17
2023-02-23T04:21:46.584Z,14.88
2023-02-23T04:24:13.993Z,15.77
2023-02-23T04:26:41.425Z,15.27
2023-02-23T04:29:08.770Z,19.75
2023-02-23T04:31:36.229Z,19.63
2023-02-23T04:34:04.810Z,20.98
2023-02-23T04:36:32.258Z,17.45
2023-02-23T04:38:59.874Z,21.70
2023-02-23T04:41:27.229Z,20.02
2023-02-23T04:43:54.569Z,19.67
2023-02-23T04:46:21.932Z,17.33
2023-02-23T04:48:49.310Z,17.63
2023-02-23T04:51:17.048Z,19.42
2023-02-23T04:53:44.520Z,16.98
2023-02-23T04:56:12.147Z,17.30
2023-02-23T04:58:39.877Z,17.53
2023-02-23T05:01:09.831Z,18.87
2023-02-23T05:03:37.400Z,16.43
2023-02-23T05:06:04.971Z,17.37
2023-02-23T05:08:32.485Z,16.93
2023-02-23T05:10:59.812Z,15.40
2023-02-23T05:13:27.226Z,16.53
2023-02-23T05:15:58.023Z,17.13
2023-02-23T05:18:26.674Z,17.57
2023-02-23T05:21:01.201Z,17.57
2023-02-23T05:23:28.579Z,16.97
2023-02-23T05:26:01.362Z,13.87
2023-02-23T05:28:29.047Z,15.50
2023-02-23T05:30:56.557Z,16.77
2023-02-23T05:33:24.044Z,17.57
2023-02-23T05:35:51.355Z,18.97
2023-02-23T05:38:20.062Z,18.33
2023-02-23T05:40:47.654Z,21.07
2023-02-23T05:43:15.071Z,20.77
2023-02-23T05:45:44.742Z,19.83
2023-02-23T05:48:12.647Z,22.80
2023-02-23T05:50:40.053Z,22.87
2023-02-23T05:53:07.442Z,19.13
2023-02-23T05:55:36.346Z,21.43
2023-02-23T05:58:03.792Z,20.57
2023-02-23T06:00:31.346Z,17.97
2023-02-23T06:02:58.714Z,17.43
2023-02-23T06:05:26.058Z,24.57
2023-02-23T06:07:53.983Z,19.87
2023-02-23T06:10:21.479Z,21.10
2023-02-23T06:12:49.777Z,26.43
2023-02-23T06:15:17.413Z,20.27
2023-02-23T06:17:44.815Z,19.67
2023-02-23T06:20:12.610Z,18.02
2023-02-23T06:22:39.966Z,17.17
2023-02-23T06:25:12.764Z,20.07
2023-02-23T06:27:40.402Z,16.57
2023-02-23T06:30:08.681Z,18.42
2023-02-23T06:32:36.071Z,20.98
2023-02-23T06:35:06.471Z,20.33
2023-02-23T06:37:34.683Z,18.58
2023-02-23T06:40:03.415Z,15.55
2023-02-23T06:42:30.813Z,24.27
2023-02-23T06:44:58.689Z,19.83
2023-02-23T06:47:25.973Z,19.42
2023-02-23T06:49:53.317Z,20.17
2023-02-23T06:52:20.662Z,18.75
2023-02-23T06:54:50.019Z,20.75
2023-02-23T06:57:17.484Z,20.45
2023-02-23T06:59:44.834Z,19.10
2023-02-23T07:02:14.620Z,18.55
2023-02-23T07:04:42.154Z,19.20
2023-02-23T07:07:09.534Z,21.20
2023-02-23T07:09:37.059Z,18.13
2023-02-23T07:12:05.316Z,14.32
2023-02-23T07:14:33.298Z,22.30
2023-02-23T07:17:00.615Z,18.40
2023-02-23T07:19:28.757Z,18.75
2023-02-23T07:21:56.718Z,14.63
2023-02-23T07:24:24.141Z,20.10
2023-02-23T07:26:52.159Z,20.00
2023-02-23T07:29:20.043Z,18.75
2023-02-23T07:31:50.048Z,19.02
2023-02-23T07:34:17.668Z,25.20
2023-02-23T07:36:44.971Z,16.02
2023-02-23T07:39:12.909Z,23.83
2023-02-23T07:41:40.209Z,17.65
2023-02-23T07:44:17.292Z,15.95
2023-02-23T07:46:46.606Z,19.77
2023-02-23T07:49:14.027Z,18.33
2023-02-23T07:51:42.600Z,16.58
2023-02-23T07:54:09.955Z,17.38
2023-02-23T07:56:37.293Z,21.02
2023-02-23T07:59:04.690Z,19.55
2023-02-23T08:01:32.108Z,15.20
2023-02-23T08:03:59.484Z,18.55
2023-02-23T08:06:26.852Z,15.30
2023-02-23T08:08:54.202Z,20.17
2023-02-23T08:11:21.723Z,17.83
2023-02-23T08:13:49.034Z,17.33
2023-02-23T08:16:16.581Z,17.80
2023-02-23T08:18:43.921Z,15.50
2023-02-23T08:21:11.900Z,15.80
2023-02-23T08:23:39.529Z,17.98
2023-02-23T08:26:06.831Z,17.02
2023-02-23T08:28:34.130Z,26.63
2023-02-23T08:31:01.532Z,15.15
2023-02-23T08:33:31.654Z,18.67
2023-02-23T08:35:59.662Z,17.20
2023-02-23T08:38:26.950Z,19.55
2023-02-23T08:40:55.048Z,18.02
2023-02-23T08:43:22.310Z,17.70
2023-02-23T08:45:49.649Z,19.25
2023-02-23T08:48:16.932Z,17.10
2023-02-23T08:50:44.259Z,18.33
2023-02-23T08:53:11.515Z,18.88
2023-02-23T08:55:38.814Z,21.85
2023-02-23T08:58:10.848Z,18.13
2023-02-23T09:03:06.803Z,14.98
2023-02-23T09:05:37.750Z,20.95
2023-02-23T09:08:05.182Z,18.65
2023-02-23T09:10:33.555Z,16.52
2023-02-23T09:13:00.855Z,24.25
2023-02-23T09:15:28.155Z,21.00
2023-02-23T09:17:59.380Z,14.50
2023-02-23T09:20:26.754Z,21.55
2023-02-23T09:22:54.072Z,15.52
2023-02-23T09:25:25.480Z,16.90
2023-02-23T09:27:56.401Z,12.93
2023-02-23T09:30:24.040Z,13.80
2023-02-23T09:32:52.087Z,14.45
2023-02-23T09:35:21.312Z,16.30
2023-02-23T09:37:51.893Z,15.15
2023-02-23T09:40:26.313Z,13.57
2023-02-23T09:43:35.657Z,12.55
2023-02-23T09:46:30.381Z,15.73
2023-02-23T09:49:00.878Z,15.43
2023-02-23T09:51:29.595Z,21.55
2023-02-23T09:54:00.098Z,13.98
2023-02-23T09:56:35.733Z,16.80
2023-02-23T09:59:09.907Z,13.13
2023-02-23T10:01:53.969Z,12.18
2023-02-23T10:04:43.835Z,13.77
2023-02-23T10:07:28.534Z,14.52
2023-02-23T10:10:28.016Z,12.93
2023-02-23T10:13:33.602Z,13.43
2023-02-23T10:16:30.357Z,11.07
2023-02-23T10:19:13.099Z,13.57
2023-02-23T10:21:43.698Z,13.93
2023-02-23T10:24:43.166Z,12.38
2023-02-23T10:27:16.437Z,13.10
2023-02-23T10:29:57.315Z,14.68
2023-02-23T10:32:32.462Z,12.80
2023-02-23T10:35:00.167Z,13.50
2023-02-23T10:37:27.718Z,12.07
2023-02-23T10:39:55.104Z,12.00
2023-02-23T10:42:28.951Z,10.52
2023-02-23T10:44:57.489Z,14.20
2023-02-23T10:47:32.538Z,9.48
2023-02-23T10:50:00.799Z,11.25
2023-02-23T10:52:42.683Z,12.23
2023-02-23T10:55:28.792Z,11.75
2023-02-23T10:58:19.094Z,12.85
2023-02-23T11:01:04.729Z,10.38
2023-02-23T11:03:57.593Z,9.75
2023-02-23T11:06:35.006Z,11.73
2023-02-23T11:09:33.109Z,12.95
2023-02-23T11:12:44.716Z,10.63
2023-02-23T11:18:20.935Z,11.73
2023-02-23T11:20:49.133Z,11.20
2023-02-23T11:23:31.899Z,10.63
2023-02-23T11:26:01.950Z,12.70
2023-02-23T11:28:35.644Z,10.95
2023-02-23T11:31:09.255Z,13.40
2023-02-23T11:33:39.118Z,12.52
2023-02-23T11:36:29.180Z,11.15
2023-02-23T11:39:07.475Z,14.80
2023-02-23T11:41:37.215Z,9.43
2023-02-23T11:44:06.376Z,11.00
2023-02-23T11:46:38.230Z,12.88
2023-02-23T11:49:10.001Z,9.68
2023-02-23T11:51:40.976Z,9.82
2023-02-23T11:54:22.285Z,11.47
2023-02-23T11:56:55.217Z,8.85
2023-02-23T11:59:54.341Z,9.45
2023-02-23T12:02:25.059Z,7.45
2023-02-23T12:05:21.954Z,9.10
2023-02-23T12:08:20.055Z,11.15
2023-02-23T12:10:55.874Z,9.80
2023-02-23T12:13:43.850Z,7.90
2023-02-23T12:16:18.782Z,10.23
2023-02-23T12:19:23.204Z,10.88
2023-02-23T12:22:22.716Z,10.30
2023-02-23T12:24:59.418Z,10.50
2023-02-23T12:27:41.490Z,9.05
2023-02-23T12:33:02.518Z,8.15
2023-02-23T12:35:55.472Z,8.77
2023-02-23T12:38:39.718Z,10.25
2023-02-23T12:41:12.935Z,6.90
2023-02-23T12:43:57.773Z,10.10
2023-02-23T12:46:38.645Z,8.43
2023-02-23T12:49:36.270Z,8.80
2023-02-23T12:52:20.475Z,9.00
2023-02-23T12:54:48.013Z,7.90
2023-02-23T12:57:31.847Z,6.72
2023-02-23T13:00:32.842Z,10.23
2023-02-23T13:03:38.449Z,7.55
2023-02-23T13:06:47.215Z,8.85
2023-02-23T13:09:43.576Z,6.75
2023-02-23T13:12:27.102Z,6.18
2023-02-23T13:15:33.297Z,7.72
2023-02-23T13:21:49.155Z,8.10
2023-02-23T13:24:25.408Z,8.00
2023-02-23T13:27:05.837Z,6.38
2023-02-23T13:29:44.759Z,8.02
2023-02-23T13:32:18.833Z,6.70
2023-02-23T13:35:00.893Z,8.65
2023-02-23T13:37:39.432Z,6.90
2023-02-23T13:40:54.952Z,7.78
2023-02-23T13:43:37.901Z,7.60
2023-02-23T13:46:55.818Z,7.10
2023-02-23T13:49:39.110Z,7.07
2023-02-23T13:52:33.860Z,6.35
2023-02-23T13:55:04.511Z,8.43
2023-02-23T13:57:32.873Z,8.88
2023-02-23T14:00:01.164Z,7.38
2023-02-23T14:02:43.479Z,7.15
2023-02-23T14:05:31.698Z,8.50
2023-02-23T14:08:02.935Z,8.63
2023-02-23T14:10:41.977Z,10.55
2023-02-23T14:13:40.474Z,10.48
2023-02-23T14:16:28.149Z,10.65
2023-02-23T14:19:10.171Z,11.27
2023-02-23T14:21:52.414Z,10.38
2023-02-23T14:24:24.618Z,11.27
2023-02-23T14:27:41.303Z,9.30
2023-02-23T14:30:21.237Z,10.43
2023-02-23T14:32:50.577Z,13.32
2023-02-23T14:35:42.538Z,13.93
2023-02-23T14:38:16.004Z,12.45
2023-02-23T14:40:49.541Z,13.63
2023-02-23T14:43:53.514Z,14.77
2023-02-23T14:46:23.328Z,12.70
2023-02-23T14:49:02.231Z,13.32
2023-02-23T14:51:42.522Z,15.55
2023-02-23T14:54:31.323Z,16.90
2023-02-23T14:57:01.521Z,15.60
2023-02-23T14:59:38.199Z,15.38
2023-02-23T15:02:25.274Z,17.88
2023-02-23T15:04:53.080Z,16.48
2023-02-23T15:07:32.308Z,17.48
2023-02-23T15:10:01.389Z,15.73
2023-02-23T15:12:34.784Z,13.80
2023-02-23T15:15:03.964Z,15.57
2023-02-23T15:17:33.892Z,13.40
2023-02-23T15:20:16.428Z,15.80
2023-02-23T15:22:48.710Z,13.57
2023-02-23T15:25:19.253Z,12.18
2023-02-23T15:27:47.951Z,13.30
2023-02-23T15:30:35.659Z,12.55
2023-02-23T15:33:12.597Z,15.63
2023-02-23T15:35:49.579Z,13.75
2023-02-23T15:38:42.229Z,16.92
2023-02-23T15:41:36.128Z,14.70
2023-02-23T15:44:20.876Z,16.33
2023-02-23T15:46:59.971Z,14.93
2023-02-23T15:49:33.898Z,16.90
2023-02-23T15:52:08.909Z,16.75
2023-02-23T15:55:02.009Z,15.65
2023-02-23T15:57:31.996Z,17.13
2023-02-23T16:00:02.469Z,19.45
2023-02-23T16:02:36.976Z,16.83
2023-02-23T16:05:22.598Z,17.65
2023-02-23T16:08:06.273Z,21.35
2023-02-23T16:10:46.729Z,15.85
2023-02-23T16:13:19.902Z,18.30
2023-02-23T16:15:50.101Z,16.17
2023-02-23T16:18:35.046Z,17.20
2023-02-23T16:21:04.436Z,18.17
2023-02-23T16:23:41.426Z,20.90
2023-02-23T16:26:16.360Z,19.75
2023-02-23T16:28:46.345Z,16.88
2023-02-23T16:31:22.835Z,17.88
2023-02-23T16:34:00.362Z,21.48
2023-02-23T16:36:39.845Z,20.15
2023-02-23T16:39:11.813Z,18.05
2023-02-23T16:44:12.690Z,17.75
2023-02-23T16:46:55.712Z,21.35
2023-02-23T16:49:23.673Z,22.55
2023-02-23T16:51:52.647Z,22.25
2023-02-23T16:54:19.999Z,23.90
2023-02-23T16:56:48.310Z,25.10
2023-02-23T16:59:18.124Z,21.95
2023-02-23T17:01:47.006Z,19.20
2023-02-23T17:04:15.643Z,24.33
2023-02-23T17:06:44.268Z,24.88
2023-02-23T17:09:15.158Z,23.90
2023-02-23T17:11:47.203Z,26.33
2023-02-23T17:14:24.579Z,22.42
2023-02-23T17:16:52.108Z,22.95
2023-02-23T17:19:20.308Z,22.98
2023-02-23T17:21:49.144Z,24.95
2023-02-23T17:24:16.931Z,22.40
2023-02-23T17:26:44.318Z,23.73
2023-02-23T17:29:11.766Z,21.65
2023-02-23T17:31:40.765Z,25.80
2023-02-23T17:34:08.282Z,24.20
2023-02-23T17:36:35.754Z,23.52
2023-02-23T17:39:03.526Z,21.55
2023-02-23T17:41:31.116Z,26.35
2023-02-23T17:43:58.784Z,24.80
2023-02-23T17:46:26.267Z,29.13
2023-02-23T17:48:55.275Z,27.17
2023-02-23T17:51:23.881Z,25.27
2023-02-23T17:53:51.473Z,29.10
2023-02-23T17:56:20.346Z,26.80
2023-02-23T17:58:48.358Z,29.52
2023-02-23T18:01:16.455Z,30.83
2023-02-23T18:03:44.106Z,27.80
2023-02-23T18:06:13.478Z,30.83
2023-02-23T18:08:43.144Z,27.13
2023-02-23T18:11:10.644Z,40.58
2023-02-23T18:13:38.360Z,36.05
2023-02-23T18:16:09.670Z,38.15
2023-02-23T18:18:40.798Z,34.30
2023-02-23T18:21:13.659Z,30.00
2023-02-23T18:23:41.434Z,35.53
2023-02-23T18:26:12.078Z,35.78
2023-02-23T18:28:41.165Z,33.92
2023-02-23T18:31:08.722Z,35.40
2023-02-23T18:33:36.448Z,39.08
2023-02-23T18:36:13.926Z,41.47
2023-02-23T18:38:41.294Z,46.00
2023-02-23T18:41:08.751Z,40.08
2023-02-23T18:43:36.256Z,29.50
2023-02-23T18:46:11.813Z,30.15
2023-02-23T18:48:39.952Z,32.58
2023-02-23T18:51:12.373Z,34.55
2023-02-23T18:53:40.663Z,34.25
2023-02-23T18:56:10.611Z,36.70
2023-02-23T18:58:38.735Z,34.50
2023-02-23T19:01:18.247Z,35.78
2023-02-23T19:03:46.638Z,39.20
2023-02-23T19:06:16.312Z,34.20
2023-02-23T19:08:44.878Z,37.20
2023-02-23T19:11:12.704Z,31.70
2023-02-23T19:13:40.429Z,38.47
2023-02-23T19:16:08.342Z,37.17
2023-02-23T19:18:36.715Z,37.33
2023-02-23T19:21:04.954Z,38.80
2023-02-23T19:23:32.405Z,38.25
2023-02-23T19:26:02.564Z,37.20
2023-02-23T19:28:30.384Z,39.72
2023-02-23T19:31:09.571Z,33.85
2023-02-23T19:33:39.968Z,41.67
2023-02-23T19:36:10.727Z,40.53
2023-02-23T19:38:39.313Z,31.92
2023-02-23T19:41:08.734Z,36.08
2023-02-23T19:43:36.211Z,35.10
2023-02-23T19:46:08.993Z,34.88
2023-02-23T19:48:36.579Z,35.47
2023-02-23T19:51:04.569Z,36.30
2023-02-23T19:53:32.773Z,33.28
2023-02-23T19:56:02.236Z,32.03
2023-02-23T19:58:29.643Z,34.90
2023-02-23T20:00:57.843Z,39.45
2023-02-23T20:03:28.635Z,32.45
2023-02-23T20:05:56.535Z,37.08
2023-02-23T20:08:25.208Z,42.30
2023-02-23T20:10:53.247Z,46.15
2023-02-23T20:13:23.772Z,44.60
2023-02-23T20:15:59.457Z,43.45
2023-02-23T20:18:28.547Z,51.40
2023-02-23T20:20:56.071Z,42.92
2023-02-23T20:23:23.532Z,55.13
2023-02-23T20:25:50.983Z,40.72
2023-02-23T20:28:18.473Z,43.13
2023-02-23T20:30:47.559Z,43.70
2023-02-23T20:33:15.580Z,45.95
2023-02-23T20:35:43.462Z,47.95
2023-02-23T20:38:11.693Z,40.78
2023-02-23T20:40:39.158Z,38.08
2023-02-23T20:43:06.618Z,38.60
2023-02-23T20:45:34.461Z,37.42
2023-02-23T20:48:04.765Z,47.60
2023-02-23T20:50:34.027Z,37.55
2023-02-23T20:53:02.655Z,43.75
2023-02-23T20:55:31.754Z,43.33
2023-02-23T20:57:59.551Z,44.40
2023-02-23T21:00:32.244Z,44.03
2023-02-23T21:03:02.206Z,43.92
2023-02-23T21:05:32.723Z,39.38
2023-02-23T21:08:01.819Z,43.35
2023-02-23T21:10:34.072Z,38.65
2023-02-23T21:13:01.675Z,44.67
2023-02-23T21:15:29.723Z,41.13
2023-02-23T21:17:58.957Z,41.15
2023-02-23T21:20:27.983Z,44.80
2023-02-23T21:22:56.052Z,46.13
2023-02-23T21:25:25.616Z,46.88
2023-02-23T21:27:54.392Z,45.47
2023-02-23T21:30:24.753Z,44.42
2023-02-23T21:32:53.748Z,48.42
2023-02-23T21:35:21.943Z,53.35
2023-02-23T21:37:51.193Z,51.08
2023-02-23T21:40:21.491Z,60.00
2023-02-23T21:42:50.112Z,55.08
2023-02-23T21:45:18.825Z,61.13
2023-02-23T21:47:47.439Z,58.17
2023-02-23T21:50:17.668Z,58.00
2023-02-23T21:52:48.733Z,57.30
2023-02-23T21:55:24.468Z,62.00
2023-02-23T21:57:52.689Z,63.30
2023-02-23T22:00:21.891Z,57.03
2023-02-23T22:02:50.461Z,58.90
2023-02-23T22:05:19.090Z,57.50
2023-02-23T22:07:53.055Z,55.40
2023-02-23T22:10:22.766Z,59.97
2023-02-23T22:12:53.634Z,61.47
2023-02-23T22:15:24.727Z,53.55
2023-02-23T22:17:52.052Z,60.88
2023-02-23T22:20:21.418Z,61.75
2023-02-23T22:22:50.546Z,59.72
2023-02-23T22:25:19.934Z,65.63
2023-02-23T22:27:48.171Z,49.13
2023-02-23T22:30:16.163Z,65.07
2023-02-23T22:32:44.101Z,60.33
2023-02-23T22:35:12.127Z,58.20
2023-02-23T22:37:40.026Z,58.67
2023-02-23T22:40:13.223Z,59.38
2023-02-23T22:42:43.461Z,60.08
2023-02-23T22:45:11.769Z,53.33
2023-02-23T22:47:39.485Z,53.20
2023-02-23T22:50:07.630Z,60.70
2023-02-23T22:52:35.920Z,54.72
2023-02-23T22:55:04.037Z,63.45
2023-02-23T22:57:31.733Z,55.42
2023-02-23T23:00:11.806Z,62.50
2023-02-23T23:02:39.303Z,56.10
2023-02-23T23:05:08.103Z,63.20
2023-02-23T23:07:35.869Z,59.85
2023-02-23T23:10:05.778Z,65.45
2023-02-23T23:12:34.735Z,58.42
2023-02-23T23:15:03.562Z,58.92
2023-02-23T23:17:32.164Z,57.40
2023-02-23T23:20:10.716Z,54.70
2023-02-23T23:22:38.980Z,60.08
2023-02-23T23:25:14.752Z,58.55
2023-02-23T23:27:44.940Z,57.97
2023-02-23T23:30:13.757Z,54.50
2023-02-23T23:32:41.383Z,57.63
2023-02-23T23:35:11.473Z,57.75
2023-02-23T23:37:40.271Z,53.25
2023-02-23T23:40:14.068Z,53.78
2023-02-23T23:42:46.596Z,57.00
2023-02-23T23:45:17.529Z,55.00
2023-02-23T23:47:46.202Z,55.75
2023-02-23T23:50:18.273Z,53.35
2023-02-23T23:55:14.943Z,43.35
2023-02-23T23:57:42.678Z,40.72
